Time;durP1;ratioP1;P1;durP2;ratioP2;P2;SDS_P1;SDS_P2;PMS_P1;PMS_P2;Temp;Humidity;BMP_temperature;BMP_pressure;BME280_temperature;BME280_humidity;BME280_pressure;Samples;Min_cycle;Max_cycle;Signal;HPM_P1;HPM_P2
2023/09/06 06:56:06;;;;;;;10.80;5.57;;;;;;;18.58;100.00;101792.25;5087909;27;20406;-77
2023/09/06 06:58:32;;;;;;;6.38;5.03;;;;;;;18.65;100.00;101796.69;5070576;28;20039;-76
2023/09/06 07:00:57;;;;;;;9.38;6.07;;;;;;;18.71;100.00;101792.94;5068242;28;20059;-78
2023/09/06 07:03:24;;;;;;;7.47;5.95;;;;;;;18.80;100.00;101793.31;5071790;28;20089;-79
2023/09/06 07:05:49;;;;;;;13.30;6.40;;;;;;;18.91;100.00;101795.09;5072313;28;20028;-77
2023/09/06 07:08:14;;;;;;;6.80;5.97;;;;;;;18.97;100.00;101795.97;5090773;28;20395;-82
2023/09/06 07:10:40;;;;;;;8.30;5.80;;;;;;;19.07;100.00;101799.66;5072027;28;20119;-74
2023/09/06 07:13:05;;;;;;;11.43;6.30;;;;;;;19.15;100.00;101800.28;5089951;28;20033;-78
2023/09/06 07:15:30;;;;;;;7.43;5.88;;;;;;;19.23;100.00;101808.00;5072046;28;20028;-78
2023/09/06 07:17:56;;;;;;;9.25;5.53;;;;;;;19.27;100.00;101792.69;5069585;28;20433;-77
2023/09/06 07:20:22;;;;;;;7.93;5.30;;;;;;;19.37;100.00;101789.19;5069180;28;20119;-78
2023/09/06 07:22:50;;;;;;;7.78;4.95;;;;;;;19.43;100.00;101788.16;5086838;28;20047;-77
2023/09/06 07:25:16;;;;;;;7.75;4.70;;;;;;;19.57;100.00;101792.13;5090284;28;20033;-77
2023/09/06 07:27:43;;;;;;;8.63;4.85;;;;;;;19.64;100.00;101791.88;5088443;28;20133;-78
2023/09/06 07:30:09;;;;;;;9.25;4.38;;;;;;;19.70;100.00;101790.00;5089166;28;20020;-80
2023/09/06 07:32:34;;;;;;;10.45;5.30;;;;;;;19.78;100.00;101784.88;5089925;28;20040;-78
2023/09/06 07:35:00;;;;;;;11.60;4.72;;;;;;;19.89;100.00;101787.72;5071324;28;20456;-78
2023/09/06 07:37:25;;;;;;;8.63;4.60;;;;;;;19.93;100.00;101800.66;5070463;28;20024;-77
2023/09/06 07:39:51;;;;;;;6.35;4.63;;;;;;;19.94;100.00;101794.06;5089555;28;20060;-78
2023/09/06 07:42:17;;;;;;;9.68;4.63;;;;;;;20.04;100.00;101798.78;5060681;28;20044;-77
2023/09/06 07:44:42;;;;;;;6.88;4.40;;;;;;;20.14;100.00;101806.25;5069187;28;20029;-78
2023/09/06 07:47:07;;;;;;;11.27;4.57;;;;;;;20.21;100.00;101801.34;5069163;28;20033;-76
2023/09/06 07:49:32;;;;;;;6.63;4.25;;;;;;;20.34;100.00;101800.88;5069291;28;20047;-78
2023/09/06 07:52:00;;;;;;;10.98;4.60;;;;;;;20.36;100.00;101800.59;5079118;28;20387;-82
2023/09/06 07:54:25;;;;;;;8.27;3.90;;;;;;;20.45;100.00;101807.22;5060709;28;20044;-77
2023/09/06 07:56:50;;;;;;;7.57;3.85;;;;;;;20.55;100.00;101806.47;5050805;28;20461;-78
2023/09/06 07:59:20;;;;;;;8.15;4.15;;;;;;;20.57;100.00;101809.75;5068411;28;20028;-77
2023/09/06 08:01:46;;;;;;;6.55;4.13;;;;;;;20.62;100.00;101804.28;5048487;28;20448;-77
2023/09/06 08:04:11;;;;;;;6.80;3.78;;;;;;;20.70;100.00;101809.28;5067610;28;20082;-78
2023/09/06 08:06:36;;;;;;;5.50;4.00;;;;;;;20.77;100.00;101802.69;5068863;28;20037;-77
2023/09/06 08:09:02;;;;;;;10.20;3.80;;;;;;;20.74;100.00;101806.81;5054858;28;20029;-78
2023/09/06 08:11:27;;;;;;;5.60;3.80;;;;;;;20.83;100.00;101818.13;5037156;28;20037;-79
2023/09/06 08:13:52;;;;;;;7.35;3.90;;;;;;;20.95;100.00;101815.94;5037076;28;20035;-79
2023/09/06 08:16:19;;;;;;;7.03;3.50;;;;;;;21.14;100.00;101815.47;5055418;28;20056;-78
2023/09/06 08:18:46;;;;;;;6.50;3.50;;;;;;;21.11;100.00;101821.50;5037802;28;20032;-79
2023/09/06 08:21:11;;;;;;;7.00;3.30;;;;;;;21.13;100.00;101808.28;5073503;28;20028;-77
2023/09/06 08:23:37;;;;;;;8.80;3.53;;;;;;;21.27;100.00;101812.13;5074795;28;20021;-79
2023/09/06 08:26:03;;;;;;;4.95;3.10;;;;;;;21.30;100.00;101814.34;5074496;28;20103;-79
2023/09/06 08:28:29;;;;;;;8.73;3.38;;;;;;;21.47;100.00;101810.50;5040773;28;20041;-79
2023/09/06 08:30:54;;;;;;;5.20;2.90;;;;;;;21.55;100.00;101813.56;5073105;28;20059;-81
2023/09/06 08:33:20;;;;;;;7.38;2.75;;;;;;;21.68;100.00;101820.47;5050940;28;20025;-80
2023/09/06 08:35:45;;;;;;;5.82;2.45;;;;;;;21.68;100.00;101817.69;5054567;28;20025;-81
2023/09/06 08:38:10;;;;;;;5.85;2.60;;;;;;;21.80;100.00;101811.06;5054557;28;20032;-79
2023/09/06 08:40:36;;;;;;;6.68;2.50;;;;;;;21.91;100.00;101816.28;5036516;28;20033;-77
2023/09/06 08:43:03;;;;;;;8.55;2.80;;;;;;;21.93;100.00;101805.00;5053357;28;20408;-79
2023/09/06 08:45:29;;;;;;;6.13;2.33;;;;;;;22.08;100.00;101807.69;5036508;28;20033;-81
2023/09/06 08:47:55;;;;;;;7.05;2.70;;;;;;;22.09;100.00;101812.13;5053595;28;20037;-76
2023/09/06 08:50:21;;;;;;;4.70;2.30;;;;;;;22.08;100.00;101804.13;5047479;28;20025;-76
2023/09/06 08:52:50;;;;;;;5.38;2.70;;;;;;;22.23;100.00;101808.78;5054392;28;20041;-79
2023/09/06 08:55:16;;;;;;;6.97;2.70;;;;;;;22.37;100.00;101812.59;5041762;28;20052;-76
2023/09/06 08:57:41;;;;;;;5.35;2.60;;;;;;;22.39;100.00;101813.16;5040926;28;20392;-78
2023/09/06 09:00:09;;;;;;;6.10;2.63;;;;;;;22.41;100.00;101810.94;5079316;28;20032;-77
2023/09/06 09:02:40;;;;;;;5.93;2.78;;;;;;;22.52;100.00;101810.91;5094243;28;20008;-78
2023/09/06 09:05:06;;;;;;;5.93;2.67;;;;;;;22.54;100.00;101816.94;5076258;28;20035;-77
2023/09/06 09:07:31;;;;;;;5.03;2.30;;;;;;;22.63;100.00;101821.63;5057998;28;20039;-79
2023/09/06 09:10:01;;;;;;;4.38;2.30;;;;;;;22.61;100.00;101820.25;5074614;28;20112;-81
2023/09/06 09:12:28;;;;;;;4.78;2.20;;;;;;;22.77;92.29;101821.81;5074828;28;20028;-79
2023/09/06 09:14:54;;;;;;;3.25;2.20;;;;;;;22.78;94.05;101817.94;5070741;28;20029;-80
2023/09/06 09:17:24;;;;;;;4.40;2.30;;;;;;;22.82;91.51;101812.69;5035825;28;20025;-76
2023/09/06 09:19:50;;;;;;;5.60;2.22;;;;;;;22.91;93.57;101816.50;5054504;28;20048;-78
2023/09/06 09:22:22;;;;;;;5.50;2.15;;;;;;;22.99;98.06;101817.81;5074215;28;20061;-81
2023/09/06 09:24:47;;;;;;;3.63;2.25;;;;;;;22.96;95.38;101810.09;5056109;28;20029;-79
2023/09/06 09:27:12;;;;;;;3.13;2.10;;;;;;;23.16;98.26;101814.72;5055975;28;20107;-77
2023/09/06 09:29:38;;;;;;;5.30;2.30;;;;;;;23.28;92.59;101808.81;5072924;28;20039;-77
2023/09/06 09:32:04;;;;;;;5.18;2.45;;;;;;;23.29;93.86;101810.47;5074000;28;20020;-80
2023/09/06 09:34:30;;;;;;;4.45;2.50;;;;;;;23.26;90.38;101811.03;5074147;28;20439;-80
2023/09/06 09:36:55;;;;;;;4.22;2.25;;;;;;;23.36;86.29;101814.53;5073998;28;20099;-81
2023/09/06 09:39:27;;;;;;;2.65;2.08;;;;;;;23.48;87.25;101811.41;5073481;28;20029;-78
2023/09/06 09:41:57;;;;;;;5.68;2.28;;;;;;;23.54;91.24;101807.50;5074023;28;20056;-80
2023/09/06 09:44:23;;;;;;;4.72;2.50;;;;;;;23.54;85.10;101801.97;5056811;28;20036;-82
2023/09/06 09:46:56;;;;;;;5.90;2.45;;;;;;;23.69;86.82;101803.78;5063248;28;20021;-82
2023/09/06 09:49:22;;;;;;;6.63;2.30;;;;;;;23.85;87.56;101790.66;5052533;28;20064;-79
2023/09/06 09:51:50;;;;;;;4.43;2.50;;;;;;;23.81;93.82;101800.63;5053876;28;20041;-81
2023/09/06 09:54:17;;;;;;;7.18;2.85;;;;;;;23.87;89.76;101799.47;5053558;28;20057;-77
2023/09/06 09:56:51;;;;;;;6.68;2.45;;;;;;;23.96;96.74;101804.34;5035987;28;20120;-79
2023/09/06 09:59:19;;;;;;;5.55;2.58;;;;;;;24.07;85.99;101800.38;5053963;28;20025;-81
2023/09/06 10:01:44;;;;;;;4.57;2.47;;;;;;;24.16;96.09;101806.91;5054726;28;20052;-79
2023/09/06 10:04:11;;;;;;;4.30;2.30;;;;;;;24.20;88.12;101794.16;5073325;28;20075;-78
2023/09/06 10:06:38;;;;;;;3.90;2.22;;;;;;;24.22;83.22;101802.16;5071024;28;20045;-78
2023/09/06 10:09:12;;;;;;;4.13;2.65;;;;;;;24.32;77.72;101801.19;5055228;28;20029;-77
2023/09/06 10:11:40;;;;;;;7.30;2.80;;;;;;;24.49;75.23;101800.69;5076617;28;20466;-78
2023/09/06 10:14:06;;;;;;;7.68;2.60;;;;;;;24.52;76.16;101797.38;5054621;28;20033;-77
2023/09/06 10:16:32;;;;;;;4.50;2.25;;;;;;;24.47;77.92;101806.53;5053898;28;20044;-77
2023/09/06 10:18:58;;;;;;;4.25;2.35;;;;;;;24.56;72.77;101796.47;5060935;28;20051;-77
2023/09/06 10:21:25;;;;;;;5.25;2.40;;;;;;;24.62;68.24;101788.13;5058637;28;20029;-80
2023/09/06 10:23:50;;;;;;;6.38;2.70;;;;;;;24.68;72.88;101786.94;5041155;28;20059;-77
2023/09/06 10:26:26;;;;;;;5.18;2.60;;;;;;;24.76;78.45;101784.31;5041273;28;20060;-77
2023/09/06 10:28:59;;;;;;;8.27;2.67;;;;;;;24.82;76.85;101789.75;5052415;28;20039;-80
2023/09/06 10:31:59;;;;;;;9.85;2.75;;;;;;;24.77;77.21;101787.91;5054042;28;20060;-78
2023/09/06 10:34:24;;;;;;;6.47;2.60;;;;;;;24.91;75.74;101788.81;5017136;28;20090;-77
2023/09/06 10:37:00;;;;;;;5.63;2.50;;;;;;;24.99;74.34;101790.06;5053041;28;20036;-78
2023/09/06 10:39:28;;;;;;;8.25;2.70;;;;;;;25.06;70.75;101790.53;5034754;28;20112;-76
2023/09/06 10:42:08;;;;;;;5.88;2.65;;;;;;;25.17;71.77;101782.03;5062814;28;20036;-75
2023/09/06 10:44:56;;;;;;;10.90;2.85;;;;;;;25.28;74.43;101781.56;5073091;28;20113;-74
2023/09/06 10:47:30;;;;;;;5.05;2.63;;;;;;;25.44;69.93;101784.94;5054967;28;20566;-78
2023/09/06 10:50:21;;;;;;;6.88;2.58;;;;;;;25.58;71.52;101784.97;5064047;28;20037;-79
2023/09/06 10:52:58;;;;;;;6.00;2.70;;;;;;;25.51;67.06;101784.53;5070918;28;20107;-74
2023/09/06 10:55:29;;;;;;;5.82;2.60;;;;;;;25.55;65.61;101779.22;5072139;28;20048;-76
2023/09/06 10:58:00;;;;;;;6.22;2.78;;;;;;;25.64;64.66;101777.41;5071808;28;20047;-75
2023/09/06 11:00:27;;;;;;;;;;;;;;;25.60;71.32;101782.72;5056997;28;20437;-75
2023/09/06 11:03:04;;;;;;;5.28;2.75;;;;;;;25.76;69.41;101788.00;5050082;28;19912;-75
2023/09/06 11:05:32;;;;;;;4.32;2.83;;;;;;;25.83;62.98;101786.47;5049387;28;20031;-76
2023/09/06 11:07:57;;;;;;;6.32;2.80;;;;;;;25.86;64.12;101785.00;5038879;28;20029;-78
2023/09/06 11:10:23;;;;;;;4.75;2.60;;;;;;;25.97;65.38;101785.66;5054958;28;20043;-78
2023/09/06 11:12:48;;;;;;;6.90;2.78;;;;;;;25.96;61.22;101773.72;5072618;28;20368;-77
2023/09/06 11:15:14;;;;;;;6.15;2.60;;;;;;;26.10;60.28;101773.75;5072590;28;20468;-78
2023/09/06 11:17:39;;;;;;;5.40;2.75;;;;;;;26.03;56.47;101767.81;5072301;28;20036;-76
2023/09/06 11:20:12;;;;;;;4.85;2.30;;;;;;;26.26;56.95;101776.25;5057478;28;20369;-76
2023/09/06 11:22:46;;;;;;;5.13;2.40;;;;;;;26.29;56.55;101770.88;5034343;28;20045;-73
2023/09/06 11:25:33;;;;;;;6.60;2.60;;;;;;;26.25;58.56;101775.41;5034355;28;20078;-76
2023/09/06 11:28:02;;;;;;;9.38;2.75;;;;;;;26.40;55.00;101776.22;5051988;28;20029;-74
2023/09/06 11:30:32;;;;;;;3.70;2.40;;;;;;;26.46;55.33;101770.22;5051990;28;20380;-72
2023/09/06 11:32:57;;;;;;;3.97;2.70;;;;;;;26.49;54.74;101761.28;5052523;28;20029;-75
2023/09/06 11:35:33;;;;;;;4.32;2.53;;;;;;;26.69;57.46;101773.09;5051794;28;20025;-72
2023/09/06 11:37:59;;;;;;;8.18;2.50;;;;;;;26.64;52.91;101765.66;5062366;28;20040;-75
2023/09/06 11:40:27;;;;;;;5.95;2.65;;;;;;;26.80;51.11;101762.56;5077283;28;20024;-75
2023/09/06 11:43:02;;;;;;;6.38;2.47;;;;;;;26.86;50.50;101766.88;5088677;28;20318;-72
2023/09/06 11:45:31;;;;;;;6.20;2.60;;;;;;;26.90;50.53;101759.56;5076558;28;20483;-74
2023/09/06 11:47:59;;;;;;;3.42;2.30;;;;;;;26.96;51.79;101760.25;5054916;28;20051;-76
2023/09/06 11:50:29;;;;;;;3.90;2.70;;;;;;;27.05;50.56;101758.38;5068972;28;20040;-76
2023/09/06 11:52:56;;;;;;;4.20;2.50;;;;;;;27.17;52.89;101755.03;5037841;28;20135;-73
2023/09/06 11:55:22;;;;;;;4.68;2.47;;;;;;;27.15;51.44;101757.31;5054972;28;20053;-73
2023/09/06 11:57:57;;;;;;;4.82;2.30;;;;;;;27.30;51.48;101765.25;5054682;28;20032;-75
2023/09/06 12:00:35;;;;;;;8.25;2.80;;;;;;;27.35;49.83;101754.03;5055043;28;20029;-75
2023/09/06 12:03:07;;;;;;;4.57;2.38;;;;;;;27.34;49.21;101759.91;5055470;28;20036;-76
2023/09/06 12:05:32;;;;;;;2.47;2.10;;;;;;;27.46;47.26;101748.19;5055762;28;20060;-76
2023/09/06 12:08:00;;;;;;;7.25;2.67;;;;;;;27.53;46.22;101756.91;5055574;28;20071;-73
2023/09/06 12:10:28;;;;;;;4.22;2.30;;;;;;;27.62;47.38;101741.09;5056539;28;20056;-74
2023/09/06 12:12:56;;;;;;;5.78;2.40;;;;;;;27.61;47.31;101746.97;5037593;28;20496;-74
2023/09/06 12:15:25;;;;;;;5.38;2.47;;;;;;;27.69;46.81;101740.63;5055176;28;20036;-73
2023/09/06 12:17:50;;;;;;;3.78;2.17;;;;;;;27.76;48.48;101750.16;5055611;28;20037;-74
2023/09/06 12:20:20;;;;;;;4.85;2.45;;;;;;;27.91;49.09;101745.28;5067092;28;20178;-74
2023/09/06 12:22:51;;;;;;;7.38;2.92;;;;;;;27.94;48.43;101739.91;5076562;28;20020;-76
2023/09/06 12:25:18;;;;;;;4.95;2.47;;;;;;;27.96;48.20;101747.97;5056963;28;20032;-73
2023/09/06 12:27:44;;;;;;;6.75;2.70;;;;;;;28.03;46.51;101736.38;5075333;28;20174;-74
2023/09/06 12:30:11;;;;;;;2.97;2.33;;;;;;;28.03;46.26;101730.81;5057135;28;20032;-74
2023/09/06 12:32:40;;;;;;;4.65;2.58;;;;;;;28.07;45.84;101738.19;5074056;28;20032;-76
2023/09/06 12:35:09;;;;;;;4.10;2.40;;;;;;;28.09;45.46;101738.66;5066716;28;20037;-73
2023/09/06 12:37:36;;;;;;;4.53;2.20;;;;;;;28.23;45.65;101729.38;5037168;28;20024;-73
2023/09/06 12:40:13;;;;;;;5.20;2.60;;;;;;;28.29;45.34;101736.41;5054900;28;20025;-73
2023/09/06 12:42:41;;;;;;;3.38;2.53;;;;;;;28.22;44.89;101724.97;5054882;28;20033;-73
2023/09/06 12:45:08;;;;;;;4.20;2.40;;;;;;;28.32;44.12;101727.41;5055974;28;20037;-74
2023/09/06 12:47:34;;;;;;;4.40;2.20;;;;;;;28.45;44.54;101728.44;5072293;28;20060;-73
2023/09/06 12:50:01;;;;;;;3.40;2.20;;;;;;;28.45;44.40;101718.09;5081508;28;20037;-81
2023/09/06 12:52:27;;;;;;;5.72;2.25;;;;;;;28.46;45.66;101721.72;5056739;28;20108;-80
2023/09/06 12:54:52;;;;;;;2.83;2.15;;;;;;;28.54;44.27;101720.09;5043204;28;20044;-75
2023/09/06 12:57:17;;;;;;;5.22;2.50;;;;;;;28.60;45.14;101714.06;5036736;28;20083;-73
2023/09/06 12:59:43;;;;;;;5.03;2.55;;;;;;;28.61;43.28;101712.06;5054801;28;20055;-76
2023/09/06 13:02:08;;;;;;;4.32;2.22;;;;;;;28.64;44.17;101708.66;5034105;28;20057;-75
2023/09/06 13:04:33;;;;;;;3.08;2.33;;;;;;;28.73;43.15;101717.00;5054333;28;20025;-76
2023/09/06 13:06:58;;;;;;;4.82;2.40;;;;;;;28.71;43.25;101720.09;5056664;28;20102;-75
2023/09/06 13:09:24;;;;;;;5.28;2.25;;;;;;;28.78;43.62;101712.09;5074325;28;20056;-76
2023/09/06 13:11:50;;;;;;;3.90;2.60;;;;;;;28.77;41.39;101713.22;5056411;28;20123;-78
2023/09/06 13:14:15;;;;;;;3.20;2.53;;;;;;;28.97;44.42;101719.28;5056315;28;20043;-75
2023/09/06 13:16:41;;;;;;;4.97;2.47;;;;;;;29.00;41.68;101718.59;5057949;28;20055;-75
2023/09/06 13:19:07;;;;;;;4.68;2.38;;;;;;;28.96;42.36;101714.88;5056735;28;20041;-74
2023/09/06 13:21:33;;;;;;;4.43;2.30;;;;;;;28.91;42.40;101710.28;5073149;28;20025;-81
2023/09/06 13:23:58;;;;;;;3.38;2.40;;;;;;;29.03;42.26;101712.38;5056415;28;20433;-78
2023/09/06 13:26:24;;;;;;;4.50;2.55;;;;;;;28.96;41.67;101715.69;5074462;28;20052;-75
2023/09/06 13:28:49;;;;;;;5.78;2.65;;;;;;;28.94;42.23;101701.28;5070163;28;20034;-77
2023/09/06 13:31:14;;;;;;;4.32;2.30;;;;;;;28.98;43.10;101698.63;5054290;28;20030;-76
2023/09/06 13:33:40;;;;;;;3.33;2.20;;;;;;;28.98;42.10;101698.63;5073725;28;20055;-79
2023/09/06 13:36:06;;;;;;;4.22;2.30;;;;;;;29.18;43.20;101702.69;5073826;28;20029;-78
2023/09/06 13:38:31;;;;;;;3.95;2.38;;;;;;;29.04;42.74;101699.28;5045290;28;20468;-76
2023/09/06 13:40:57;;;;;;;5.03;2.40;;;;;;;29.06;40.07;101692.22;5072521;28;20033;-74
2023/09/06 13:43:22;;;;;;;2.67;2.40;;;;;;;29.10;41.91;101692.38;5055633;28;20051;-79
2023/09/06 13:45:47;;;;;;;2.40;2.10;;;;;;;29.10;42.04;101695.97;5055675;28;20479;-76
2023/09/06 13:48:14;;;;;;;5.35;2.50;;;;;;;29.14;39.60;101694.16;5071892;28;20046;-76
2023/09/06 13:50:39;;;;;;;4.68;2.63;;;;;;;29.23;40.63;101693.34;5055759;28;20024;-75
2023/09/06 13:53:05;;;;;;;3.75;2.20;;;;;;;29.22;38.94;101689.75;5073553;28;20421;-74
2023/09/06 13:55:31;;;;;;;5.00;2.80;;;;;;;29.23;39.41;101688.63;5044635;28;20509;-79
2023/09/06 13:57:56;;;;;;;5.15;2.40;;;;;;;29.28;38.75;101684.81;5035582;28;20075;-76
2023/09/06 14:00:22;;;;;;;5.45;2.13;;;;;;;29.30;38.90;101686.09;5052941;28;20029;-80
2023/09/06 14:02:47;;;;;;;4.78;2.40;;;;;;;29.41;41.53;101692.16;5051421;28;20487;-75
2023/09/06 14:05:13;;;;;;;4.03;2.63;;;;;;;29.24;42.27;101684.66;5060215;28;20036;-74
2023/09/06 14:07:38;;;;;;;6.13;2.60;;;;;;;29.28;40.12;101684.81;5051521;28;20029;-75
2023/09/06 14:10:04;;;;;;;6.80;2.50;;;;;;;29.31;41.23;101679.38;5071748;28;20052;-75
